Time;durP1;ratioP1;P1;durP2;ratioP2;P2;SDS_P1;SDS_P2;PMS_P1;PMS_P2;Temp;Humidity;BMP_temperature;BMP_pressure;BME280_temperature;BME280_humidity;BME280_pressure;Samples;Min_cycle;Max_cycle;Signal;HPM_P1;HPM_P2
2021/07/13 00:01:21;;;;;;;22.03;14.40;;;;;;;;;;750447;184;920967;-74
2021/07/13 00:03:48;;;;;;;23.60;15.67;;;;;;;;;;757021;184;917821;-74
2021/07/13 00:06:13;;;;;;;21.20;15.43;;;;;;;;;;755574;184;921638;-74
2021/07/13 00:08:39;;;;;;;28.70;16.30;;;;;;;;;;752886;184;920185;-75
2021/07/13 00:11:05;;;;;;;29.60;17.37;;;;;;;;;;759457;183;878779;-75
2021/07/13 00:13:31;;;;;;;22.57;16.87;;;;;;;;;;750623;184;919339;-75
2021/07/13 00:15:56;;;;;;;23.00;16.95;;;;;;;;;;747530;184;923616;-74
2021/07/13 00:18:22;;;;;;;24.87;16.83;;;;;;;;;;753665;184;921033;-75
2021/07/13 00:20:48;;;;;;;28.48;18.77;;;;;;;;;;752118;183;919817;-74
2021/07/13 00:23:14;;;;;;;22.70;17.30;;;;;;;;;;751809;184;1029198;-74
2021/07/13 00:25:40;;;;;;;22.67;17.90;;;;;;;;;;754157;184;921015;-74
2021/07/13 00:28:06;;;;;;;31.63;19.00;;;;;;;;;;758820;181;918837;-76
2021/07/13 00:30:32;;;;;;;27.40;16.70;;;;;;;;;;751352;184;854900;-75
2021/07/13 00:32:57;;;;;;;22.73;17.83;;;;;;;;;;752068;184;920066;-77
2021/07/13 00:35:23;;;;;;;33.67;18.20;;;;;;;;;;754359;184;942220;-79
2021/07/13 00:37:49;;;;;;;29.35;17.55;;;;;;;;;;751749;184;919325;-78
2021/07/13 00:40:15;;;;;;;20.20;16.67;;;;;;;;;;750190;184;973785;-79
2021/07/13 00:42:41;;;;;;;20.45;15.30;;;;;;;;;;753406;186;814589;-78
2021/07/13 00:45:07;;;;;;;22.90;16.73;;;;;;;;;;751016;184;922982;-78
2021/07/13 00:47:33;;;;;;;21.90;15.47;;;;;;;;;;749928;184;1013156;-79
2021/07/13 00:49:59;;;;;;;21.62;15.02;;;;;;;;;;752047;185;927455;-80
2021/07/13 00:52:24;;;;;;;21.20;14.40;;;;;;;;;;753320;183;1010890;-80
2021/07/13 00:54:50;;;;;;;20.57;13.90;;;;;;;;;;754458;183;906371;-81
2021/07/13 00:57:17;;;;;;;18.40;13.33;;;;;;;;;;749571;184;907389;-79
2021/07/13 00:59:42;;;;;;;18.97;15.30;;;;;;;;;;757011;184;918724;-81
2021/07/13 01:02:08;;;;;;;19.10;13.90;;;;;;;;;;753454;183;1012783;-80
2021/07/13 01:04:34;;;;;;;21.37;15.93;;;;;;;;;;754859;184;905197;-81
2021/07/13 01:07:03;;;;;;;17.43;13.77;;;;;;;;;;760607;183;806526;-80
2021/07/13 01:09:45;;;;;;;18.30;13.20;;;;;;;;;;756358;183;916975;-81
2021/07/13 01:12:12;;;;;;;21.00;12.50;;;;;;;;;;749728;184;918829;-83
2021/07/13 01:14:39;;;;;;;27.70;15.23;;;;;;;;;;751439;184;885313;-81
2021/07/13 01:17:06;;;;;;;25.60;16.77;;;;;;;;;;751526;184;819059;-77
2021/07/13 01:19:47;;;;;;;23.43;19.13;;;;;;;;;;754764;183;815327;-78
2021/07/13 01:22:14;;;;;;;27.20;19.43;;;;;;;;;;751683;184;1019301;-80
2021/07/13 01:24:57;;;;;;;33.53;18.73;;;;;;;;;;753847;184;1018357;-79
2021/07/13 01:27:27;;;;;;;25.92;16.92;;;;;;;;;;751162;184;918593;-80
2021/07/13 01:29:53;;;;;;;25.70;18.67;;;;;;;;;;753228;184;920035;-79
2021/07/13 01:32:19;;;;;;;32.97;19.77;;;;;;;;;;758683;184;918802;-78
2021/07/13 01:34:44;;;;;;;27.63;17.00;;;;;;;;;;754349;184;817179;-79
2021/07/13 01:37:10;;;;;;;24.80;19.70;;;;;;;;;;753560;184;820542;-80
2021/07/13 01:39:37;;;;;;;38.60;19.97;;;;;;;;;;756428;184;849862;-77
2021/07/13 01:42:03;;;;;;;26.37;20.17;;;;;;;;;;756391;183;919296;-79
2021/07/13 01:44:28;;;;;;;24.33;19.83;;;;;;;;;;751409;183;918721;-80
2021/07/13 01:46:54;;;;;;;25.43;20.77;;;;;;;;;;747379;184;919942;-80
2021/07/13 01:49:20;;;;;;;31.87;21.87;;;;;;;;;;759040;184;917733;-79
2021/07/13 01:51:47;;;;;;;41.67;21.33;;;;;;;;;;750689;184;816573;-79
2021/07/13 01:54:13;;;;;;;36.53;20.97;;;;;;;;;;753024;184;869856;-81
2021/07/13 01:56:38;;;;;;;29.50;22.33;;;;;;;;;;757258;184;923906;-80
2021/07/13 01:59:04;;;;;;;36.07;24.43;;;;;;;;;;751744;184;919546;-79
2021/07/13 02:01:29;;;;;;;31.27;24.70;;;;;;;;;;752406;182;921722;-81
2021/07/13 02:03:55;;;;;;;28.50;22.07;;;;;;;;;;759465;183;917241;-80
2021/07/13 02:06:21;;;;;;;29.93;21.77;;;;;;;;;;750837;184;919185;-80
2021/07/13 02:08:47;;;;;;;31.87;22.85;;;;;;;;;;751400;184;920009;-82
2021/07/13 02:11:13;;;;;;;32.00;21.70;;;;;;;;;;754637;184;941665;-80
2021/07/13 02:13:39;;;;;;;30.07;21.73;;;;;;;;;;756863;184;915319;-81
2021/07/13 02:16:05;;;;;;;31.60;22.17;;;;;;;;;;756813;184;918161;-80
2021/07/13 02:18:30;;;;;;;37.63;21.00;;;;;;;;;;747286;184;919024;-80
2021/07/13 02:20:56;;;;;;;27.43;21.83;;;;;;;;;;758218;184;811565;-81
2021/07/13 02:23:22;;;;;;;31.50;21.87;;;;;;;;;;754071;184;945430;-80
2021/07/13 02:25:48;;;;;;;25.67;20.98;;;;;;;;;;751516;184;918460;-80
2021/07/13 02:28:15;;;;;;;30.20;22.30;;;;;;;;;;755173;184;919567;-81
2021/07/13 02:30:40;;;;;;;29.30;21.70;;;;;;;;;;750838;184;1021088;-81
2021/07/13 02:33:05;;;;;;;31.10;21.57;;;;;;;;;;750122;184;1020716;-80
2021/07/13 02:35:33;;;;;;;28.50;22.17;;;;;;;;;;750189;184;1020149;-78
2021/07/13 02:37:59;;;;;;;28.93;22.10;;;;;;;;;;753404;182;968751;-80
2021/07/13 02:40:25;;;;;;;28.13;21.03;;;;;;;;;;748252;184;917042;-81
2021/07/13 02:42:51;;;;;;;28.87;21.67;;;;;;;;;;748653;184;1019380;-80
2021/07/13 02:45:17;;;;;;;30.47;22.97;;;;;;;;;;757717;184;713329;-80
2021/07/13 02:47:42;;;;;;;27.17;21.50;;;;;;;;;;753032;183;918811;-80
2021/07/13 02:50:08;;;;;;;31.50;21.77;;;;;;;;;;748528;184;919787;-80
2021/07/13 02:52:34;;;;;;;35.30;23.80;;;;;;;;;;753279;184;1019191;-80
2021/07/13 02:55:01;;;;;;;31.70;23.07;;;;;;;;;;750421;184;918900;-80
2021/07/13 02:57:27;;;;;;;32.50;23.60;;;;;;;;;;750254;184;1022406;-80
2021/07/13 02:59:53;;;;;;;29.07;23.73;;;;;;;;;;753165;184;1021339;-81
2021/07/13 03:02:18;;;;;;;33.73;24.67;;;;;;;;;;758743;182;766452;-81
2021/07/13 03:04:44;;;;;;;28.63;21.97;;;;;;;;;;754533;183;918862;-80
2021/07/13 03:07:10;;;;;;;31.67;22.30;;;;;;;;;;747280;184;918056;-79
2021/07/13 03:09:36;;;;;;;29.73;23.00;;;;;;;;;;754715;184;919402;-79
2021/07/13 03:12:02;;;;;;;35.03;23.87;;;;;;;;;;752265;184;918620;-78
2021/07/13 03:14:28;;;;;;;35.60;22.63;;;;;;;;;;756498;182;930444;-80
2021/07/13 03:16:54;;;;;;;29.27;24.00;;;;;;;;;;759225;183;908300;-79
2021/07/13 03:19:20;;;;;;;32.43;23.03;;;;;;;;;;755351;184;918752;-80
2021/07/13 03:21:46;;;;;;;28.55;22.37;;;;;;;;;;751690;184;1066784;-80
2021/07/13 03:24:11;;;;;;;41.57;26.33;;;;;;;;;;756515;183;919837;-80
2021/07/13 03:26:37;;;;;;;39.13;24.70;;;;;;;;;;751594;183;914951;-81
2021/07/13 03:29:03;;;;;;;47.20;24.27;;;;;;;;;;750008;184;846646;-80
2021/07/13 03:31:29;;;;;;;35.37;25.30;;;;;;;;;;751066;183;914428;-80
2021/07/13 03:33:55;;;;;;;38.33;25.87;;;;;;;;;;760827;181;976943;-79
2021/07/13 03:36:21;;;;;;;37.63;24.03;;;;;;;;;;752576;184;950011;-80
2021/07/13 03:38:47;;;;;;;40.97;26.73;;;;;;;;;;749764;184;1134704;-83
2021/07/13 03:41:12;;;;;;;34.07;25.07;;;;;;;;;;757427;184;814440;-79
2021/07/13 03:43:38;;;;;;;31.60;23.00;;;;;;;;;;750276;184;1022058;-79
2021/07/13 03:46:04;;;;;;;39.77;23.60;;;;;;;;;;753505;183;1021471;-80
2021/07/13 03:48:36;;;;;;;38.17;23.33;;;;;;;;;;757264;184;1019926;-77
2021/07/13 03:51:01;;;;;;;36.15;23.83;;;;;;;;;;755127;184;886777;-78
2021/07/13 03:53:27;;;;;;;37.83;25.63;;;;;;;;;;751057;184;901336;-79
2021/07/13 03:55:53;;;;;;;35.73;25.90;;;;;;;;;;751136;184;919462;-80
2021/07/13 03:58:19;;;;;;;40.50;25.87;;;;;;;;;;757266;184;914537;-81
2021/07/13 04:00:45;;;;;;;45.27;26.17;;;;;;;;;;753088;183;943261;-78
2021/07/13 04:03:13;;;;;;;37.90;25.60;;;;;;;;;;750282;184;1043544;-80
2021/07/13 04:05:39;;;;;;;36.20;23.67;;;;;;;;;;755967;184;913322;-78
2021/07/13 04:08:06;;;;;;;37.70;25.87;;;;;;;;;;750551;184;918668;-81
2021/07/13 04:10:32;;;;;;;37.47;26.83;;;;;;;;;;751200;184;918231;-81
2021/07/13 04:12:57;;;;;;;38.10;26.77;;;;;;;;;;750578;184;880026;-78
2021/07/13 04:15:23;;;;;;;42.20;27.17;;;;;;;;;;754024;183;1011884;-80
2021/07/13 04:17:49;;;;;;;41.00;28.17;;;;;;;;;;753719;184;814016;-80
2021/07/13 04:20:15;;;;;;;45.23;27.10;;;;;;;;;;755009;184;789415;-79
2021/07/13 04:22:43;;;;;;;39.70;26.27;;;;;;;;;;757207;183;1002500;-79
2021/07/13 04:25:07;;;;;;;36.80;25.73;;;;;;;;;;754467;183;1020448;-80
2021/07/13 04:27:33;;;;;;;41.33;26.87;;;;;;;;;;760313;178;649900;-81
2021/07/13 04:29:59;;;;;;;41.80;26.50;;;;;;;;;;762686;181;615032;-80
2021/07/13 04:32:25;;;;;;;36.13;24.70;;;;;;;;;;763459;184;635290;-80
2021/07/13 04:34:51;;;;;;;46.90;27.13;;;;;;;;;;751385;184;1019840;-79
2021/07/13 04:37:17;;;;;;;35.47;25.73;;;;;;;;;;755643;184;916239;-77
2021/07/13 04:39:43;;;;;;;36.93;26.73;;;;;;;;;;759570;183;918837;-80
2021/07/13 04:42:09;;;;;;;39.13;26.60;;;;;;;;;;752115;184;960628;-77
2021/07/13 04:44:34;;;;;;;33.20;26.23;;;;;;;;;;753008;183;914502;-80
2021/07/13 04:47:00;;;;;;;34.17;26.30;;;;;;;;;;756775;184;915341;-77
2021/07/13 04:49:31;;;;;;;37.50;26.70;;;;;;;;;;752850;184;917451;-79
2021/07/13 04:51:52;;;;;;;44.20;27.00;;;;;;;;;;753016;184;915044;-77
2021/07/13 04:54:18;;;;;;;36.70;26.03;;;;;;;;;;754268;184;972814;-78
2021/07/13 04:56:44;;;;;;;38.80;26.00;;;;;;;;;;751048;184;997048;-80
2021/07/13 04:59:10;;;;;;;35.87;24.90;;;;;;;;;;749692;184;914906;-78
2021/07/13 05:01:36;;;;;;;36.93;27.40;;;;;;;;;;756318;184;911795;-76
2021/07/13 05:04:02;;;;;;;34.77;27.10;;;;;;;;;;751010;184;915756;-77
2021/07/13 05:06:28;;;;;;;34.90;25.97;;;;;;;;;;750675;184;914607;-77
2021/07/13 05:08:55;;;;;;;36.77;26.80;;;;;;;;;;748545;184;922981;-79
2021/07/13 05:11:20;;;;;;;35.90;26.80;;;;;;;;;;757728;184;919783;-80
2021/07/13 05:13:45;;;;;;;32.80;25.43;;;;;;;;;;755122;184;917971;-77
2021/07/13 05:16:11;;;;;;;36.33;25.27;;;;;;;;;;751130;184;934096;-81
2021/07/13 05:18:37;;;;;;;34.13;25.83;;;;;;;;;;757506;184;829613;-83
2021/07/13 05:21:05;;;;;;;38.93;25.33;;;;;;;;;;753347;184;906611;-79
2021/07/13 05:23:29;;;;;;;36.73;25.73;;;;;;;;;;750385;184;925767;-83
2021/07/13 05:25:55;;;;;;;41.20;25.83;;;;;;;;;;755987;184;819803;-78
2021/07/13 05:28:21;;;;;;;36.30;25.43;;;;;;;;;;750004;184;1134257;-82
2021/07/13 05:30:46;;;;;;;37.67;28.65;;;;;;;;;;750228;184;1022484;-78
2021/07/13 05:33:12;;;;;;;47.03;27.60;;;;;;;;;;750836;184;918722;-80
2021/07/13 05:35:38;;;;;;;32.37;25.60;;;;;;;;;;762988;181;918881;-79
2021/07/13 05:38:04;;;;;;;36.73;27.10;;;;;;;;;;753508;183;917248;-81
2021/07/13 05:40:30;;;;;;;40.87;26.33;;;;;;;;;;752262;183;925840;-70
2021/07/13 05:42:56;;;;;;;35.67;28.90;;;;;;;;;;757415;184;917460;-77
2021/07/13 05:45:24;;;;;;;36.53;27.40;;;;;;;;;;752395;184;918567;-81
2021/07/13 05:47:50;;;;;;;33.70;26.03;;;;;;;;;;756517;184;912485;-82
2021/07/13 05:50:16;;;;;;;34.80;25.80;;;;;;;;;;757540;183;814280;-78
2021/07/13 05:52:41;;;;;;;35.97;26.40;;;;;;;;;;754150;184;1027039;-82
2021/07/13 05:55:08;;;;;;;42.65;28.08;;;;;;;;;;749003;184;917604;-80
2021/07/13 05:57:34;;;;;;;36.20;25.53;;;;;;;;;;748286;184;1020414;-82
2021/07/13 05:59:59;;;;;;;41.40;26.63;;;;;;;;;;765500;180;814303;-77
2021/07/13 06:02:25;;;;;;;32.90;25.60;;;;;;;;;;747944;184;959122;-73
2021/07/13 06:04:51;;;;;;;33.00;24.40;;;;;;;;;;751820;184;919359;-75
2021/07/13 06:07:17;;;;;;;36.93;24.37;;;;;;;;;;756533;184;816097;-77
2021/07/13 06:09:43;;;;;;;35.57;25.10;;;;;;;;;;749477;184;914419;-78
2021/07/13 06:12:09;;;;;;;29.40;22.77;;;;;;;;;;754138;184;654180;-79
2021/07/13 06:14:36;;;;;;;33.83;24.03;;;;;;;;;;756169;184;919068;-78
2021/07/13 06:17:00;;;;;;;36.35;24.73;;;;;;;;;;750517;184;919768;-76
2021/07/13 06:19:26;;;;;;;31.93;22.13;;;;;;;;;;750100;185;761601;-78
2021/07/13 06:21:52;;;;;;;25.27;20.90;;;;;;;;;;754909;184;897337;-79
2021/07/13 06:24:18;;;;;;;31.83;22.70;;;;;;;;;;754200;184;816788;-76
2021/07/13 06:26:44;;;;;;;28.07;21.77;;;;;;;;;;754377;184;918791;-77
2021/07/13 06:29:10;;;;;;;29.77;21.27;;;;;;;;;;754238;184;917594;-76
2021/07/13 06:31:36;;;;;;;26.13;20.60;;;;;;;;;;754467;184;917053;-77
2021/07/13 06:34:01;;;;;;;29.33;19.73;;;;;;;;;;747443;184;921392;-74
2021/07/13 06:36:27;;;;;;;27.33;20.60;;;;;;;;;;750347;184;918242;-78
2021/07/13 06:38:53;;;;;;;22.97;18.70;;;;;;;;;;759730;184;720570;-73
2021/07/13 06:41:19;;;;;;;26.10;19.43;;;;;;;;;;753206;184;917408;-79
2021/07/13 06:43:45;;;;;;;22.90;19.55;;;;;;;;;;749969;184;880873;-76
2021/07/13 06:46:11;;;;;;;24.33;19.33;;;;;;;;;;759272;184;721050;-76
2021/07/13 06:48:36;;;;;;;24.63;18.60;;;;;;;;;;756257;183;918250;-81
2021/07/13 06:51:02;;;;;;;23.80;19.87;;;;;;;;;;752353;183;919493;-74
2021/07/13 06:53:28;;;;;;;23.63;18.93;;;;;;;;;;753990;184;927348;-75
2021/07/13 06:55:54;;;;;;;20.83;17.23;;;;;;;;;;758232;183;912557;-75
2021/07/13 06:58:20;;;;;;;39.33;19.07;;;;;;;;;;749679;183;919331;-76
2021/07/13 07:00:46;;;;;;;22.30;17.40;;;;;;;;;;750876;184;918375;-75
2021/07/13 07:03:12;;;;;;;22.10;18.50;;;;;;;;;;754284;184;919440;-77
2021/07/13 07:05:40;;;;;;;19.87;17.60;;;;;;;;;;750474;184;919053;-76
2021/07/13 07:08:03;;;;;;;22.07;18.30;;;;;;;;;;751302;184;888399;-81
2021/07/13 07:10:29;;;;;;;30.77;18.70;;;;;;;;;;758522;183;943905;-79
2021/07/13 07:12:55;;;;;;;21.57;16.30;;;;;;;;;;749297;184;919120;-75
2021/07/13 07:15:21;;;;;;;22.67;18.67;;;;;;;;;;748967;184;925924;-78
2021/07/13 07:17:48;;;;;;;21.83;17.50;;;;;;;;;;755118;184;917824;-78
2021/07/13 07:20:14;;;;;;;20.33;16.93;;;;;;;;;;748398;184;870936;-74
2021/07/13 07:22:40;;;;;;;27.90;17.10;;;;;;;;;;749161;184;1021909;-75
2021/07/13 07:25:06;;;;;;;22.50;17.10;;;;;;;;;;750213;184;919539;-75
2021/07/13 07:27:32;;;;;;;20.70;15.97;;;;;;;;;;752942;184;931553;-74
2021/07/13 07:29:58;;;;;;;18.40;15.90;;;;;;;;;;749975;184;877701;-77
2021/07/13 07:32:24;;;;;;;24.37;18.00;;;;;;;;;;752255;184;898112;-76
2021/07/13 07:34:49;;;;;;;17.87;15.60;;;;;;;;;;756418;184;922513;-74
2021/07/13 07:37:15;;;;;;;21.27;16.33;;;;;;;;;;750750;184;915039;-77
2021/07/13 07:39:41;;;;;;;23.23;15.60;;;;;;;;;;750736;184;920393;-72
2021/07/13 07:42:07;;;;;;;20.53;15.80;;;;;;;;;;753762;184;920395;-73
2021/07/13 07:44:33;;;;;;;18.33;15.33;;;;;;;;;;747087;184;919160;-73
2021/07/13 07:46:59;;;;;;;18.70;14.90;;;;;;;;;;746532;183;917691;-77
2021/07/13 07:49:24;;;;;;;16.50;14.10;;;;;;;;;;748344;184;919066;-76
2021/07/13 07:51:50;;;;;;;24.10;15.47;;;;;;;;;;757578;180;919397;-71
2021/07/13 07:54:16;;;;;;;16.07;13.80;;;;;;;;;;751230;184;918512;-73
2021/07/13 07:56:42;;;;;;;20.30;14.53;;;;;;;;;;749643;184;919840;-75
2021/07/13 07:59:08;;;;;;;19.10;16.13;;;;;;;;;;757074;183;909241;-72
2021/07/13 08:01:34;;;;;;;25.93;15.50;;;;;;;;;;754528;182;919868;-73
2021/07/13 08:04:00;;;;;;;18.43;14.60;;;;;;;;;;753471;184;901069;-79
2021/07/13 08:06:26;;;;;;;16.00;14.13;;;;;;;;;;756720;184;956993;-74
2021/07/13 08:08:52;;;;;;;15.03;13.43;;;;;;;;;;752688;184;923043;-78
2021/07/13 08:11:17;;;;;;;16.27;14.77;;;;;;;;;;752945;184;1024889;-74
2021/07/13 08:13:43;;;;;;;19.23;15.10;;;;;;;;;;755877;183;917366;-74
2021/07/13 08:16:09;;;;;;;16.13;14.43;;;;;;;;;;753567;184;913550;-73
2021/07/13 08:18:35;;;;;;;15.77;14.27;;;;;;;;;;750469;184;915518;-73
2021/07/13 08:21:01;;;;;;;16.80;14.50;;;;;;;;;;750434;184;922120;-75
2021/07/13 08:23:27;;;;;;;16.87;14.97;;;;;;;;;;758230;184;875201;-72
2021/07/13 08:25:53;;;;;;;20.20;15.37;;;;;;;;;;748415;187;919208;-72
2021/07/13 08:28:19;;;;;;;15.60;13.37;;;;;;;;;;750228;184;1071549;-71
2021/07/13 08:30:45;;;;;;;18.23;13.93;;;;;;;;;;756263;184;1058189;-74
2021/07/13 08:33:11;;;;;;;18.47;13.40;;;;;;;;;;750002;184;918831;-73
2021/07/13 08:35:36;;;;;;;16.47;13.93;;;;;;;;;;753402;184;818250;-72
2021/07/13 08:38:02;;;;;;;16.63;14.83;;;;;;;;;;757894;184;919314;-72
2021/07/13 08:40:28;;;;;;;18.77;12.97;;;;;;;;;;752403;184;919851;-73
2021/07/13 08:42:54;;;;;;;17.20;14.77;;;;;;;;;;749079;184;1021945;-76
2021/07/13 08:45:20;;;;;;;16.50;14.23;;;;;;;;;;756373;184;633494;-73
2021/07/13 08:47:46;;;;;;;16.50;14.80;;;;;;;;;;759073;183;618007;-73
2021/07/13 08:50:12;;;;;;;18.13;14.23;;;;;;;;;;754396;183;635344;-72
2021/07/13 08:52:38;;;;;;;16.33;14.60;;;;;;;;;;753113;184;885571;-73
2021/07/13 08:55:04;;;;;;;17.50;13.87;;;;;;;;;;759301;184;617024;-74
2021/07/13 08:57:29;;;;;;;18.30;14.20;;;;;;;;;;753577;184;918242;-73
2021/07/13 08:59:55;;;;;;;14.53;13.00;;;;;;;;;;751297;184;920345;-73
2021/07/13 09:02:21;;;;;;;14.53;13.00;;;;;;;;;;755491;184;920861;-73
2021/07/13 09:04:47;;;;;;;15.13;11.80;;;;;;;;;;752968;184;768574;-72
2021/07/13 09:07:14;;;;;;;13.30;10.67;;;;;;;;;;749782;184;919695;-74
2021/07/13 09:09:39;;;;;;;12.33;11.03;;;;;;;;;;755444;184;918244;-74
2021/07/13 09:12:06;;;;;;;11.60;10.40;;;;;;;;;;751909;183;919743;-72
2021/07/13 09:14:48;;;;;;;12.33;11.17;;;;;;;;;;750353;183;919990;-73
2021/07/13 09:17:20;;;;;;;12.97;11.57;;;;;;;;;;751128;184;920521;-74
2021/07/13 09:19:51;;;;;;;14.37;11.97;;;;;;;;;;751668;183;919061;-72
2021/07/13 09:22:20;;;;;;;15.63;11.12;;;;;;;;;;751797;184;920123;-71
2021/07/13 09:24:46;;;;;;;12.37;11.00;;;;;;;;;;759107;184;624505;-71
2021/07/13 09:27:12;;;;;;;13.20;11.83;;;;;;;;;;753038;184;1022023;-74
2021/07/13 09:29:39;;;;;;;13.20;11.85;;;;;;;;;;751160;184;1021954;-74
2021/07/13 09:32:10;;;;;;;11.90;10.73;;;;;;;;;;755083;184;919341;-72
2021/07/13 09:34:36;;;;;;;13.80;11.13;;;;;;;;;;752540;184;916956;-72
2021/07/13 09:37:01;;;;;;;14.13;11.20;;;;;;;;;;751085;184;919949;-74
2021/07/13 09:39:27;;;;;;;14.90;10.63;;;;;;;;;;753353;184;915969;-77
2021/07/13 09:41:53;;;;;;;11.90;10.60;;;;;;;;;;757009;182;885997;-72
2021/07/13 09:44:21;;;;;;;12.73;10.87;;;;;;;;;;754186;182;916791;-72
2021/07/13 09:46:47;;;;;;;12.82;9.25;;;;;;;;;;750900;184;1008795;-75
2021/07/13 09:49:14;;;;;;;11.63;10.50;;;;;;;;;;754289;184;914583;-74
2021/07/13 09:51:39;;;;;;;11.60;10.40;;;;;;;;;;754106;183;919497;-74
2021/07/13 09:54:05;;;;;;;12.90;11.23;;;;;;;;;;751892;184;919092;-72
2021/07/13 09:56:37;;;;;;;11.80;10.60;;;;;;;;;;753433;184;919335;-70
2021/07/13 09:59:03;;;;;;;11.80;10.70;;;;;;;;;;751894;184;919130;-71
2021/07/13 10:01:28;;;;;;;14.33;9.50;;;;;;;;;;751574;184;919051;-72
2021/07/13 10:03:54;;;;;;;11.07;9.73;;;;;;;;;;745485;186;919331;-72
2021/07/13 10:06:20;;;;;;;11.43;9.43;;;;;;;;;;750579;186;919224;-71
2021/07/13 10:08:46;;;;;;;11.60;10.40;;;;;;;;;;753906;184;919283;-71
2021/07/13 10:11:12;;;;;;;10.17;9.00;;;;;;;;;;747002;184;920202;-71
2021/07/13 10:13:38;;;;;;;10.77;9.43;;;;;;;;;;755595;184;919652;-73
2021/07/13 10:16:05;;;;;;;11.03;8.53;;;;;;;;;;754018;184;1022067;-71
2021/07/13 10:18:30;;;;;;;14.57;8.03;;;;;;;;;;752269;184;621045;-69
2021/07/13 10:20:56;;;;;;;9.40;8.50;;;;;;;;;;754693;183;626212;-72
2021/07/13 10:23:21;;;;;;;12.93;8.40;;;;;;;;;;759362;183;918244;-71
2021/07/13 10:25:47;;;;;;;16.50;8.90;;;;;;;;;;753189;183;919236;-73
2021/07/13 10:28:13;;;;;;;9.43;8.53;;;;;;;;;;751887;184;918903;-71
2021/07/13 10:30:39;;;;;;;10.13;9.23;;;;;;;;;;758212;184;919133;-71
2021/07/13 10:33:11;;;;;;;9.07;8.17;;;;;;;;;;753229;184;920891;-73
2021/07/13 10:35:37;;;;;;;11.70;7.80;;;;;;;;;;751685;184;919061;-71
2021/07/13 10:38:24;;;;;;;8.53;7.70;;;;;;;;;;756267;184;918671;-72
2021/07/13 10:40:50;;;;;;;9.70;7.90;;;;;;;;;;749184;184;921996;-70
2021/07/13 10:43:15;;;;;;;9.50;7.80;;;;;;;;;;754921;184;918886;-73
2021/07/13 10:45:43;;;;;;;8.43;7.53;;;;;;;;;;751279;184;920560;-70
2021/07/13 10:48:10;;;;;;;12.30;9.37;;;;;;;;;;747101;184;918582;-70
2021/07/13 10:50:37;;;;;;;11.30;7.93;;;;;;;;;;757538;184;917704;-73
2021/07/13 10:53:03;;;;;;;9.53;8.37;;;;;;;;;;757146;184;670134;-75
2021/07/13 10:55:45;;;;;;;8.63;7.50;;;;;;;;;;746569;184;882957;-72
2021/07/13 10:58:26;;;;;;;9.13;7.40;;;;;;;;;;757278;184;919092;-73
2021/07/13 11:01:06;;;;;;;8.90;7.43;;;;;;;;;;755460;184;919059;-74
2021/07/13 11:03:47;;;;;;;7.78;7.07;;;;;;;;;;747292;184;918520;-73
2021/07/13 11:06:14;;;;;;;16.27;9.67;;;;;;;;;;748773;184;919382;-72
2021/07/13 11:08:56;;;;;;;8.40;7.60;;;;;;;;;;755256;184;916525;-76
2021/07/13 11:11:36;;;;;;;9.27;8.30;;;;;;;;;;756227;184;812218;-71
2021/07/13 11:14:04;;;;;;;9.30;8.37;;;;;;;;;;756683;184;919980;-71
2021/07/13 11:16:29;;;;;;;13.17;8.47;;;;;;;;;;751499;184;916296;-73
2021/07/13 11:18:55;;;;;;;9.03;8.20;;;;;;;;;;752594;184;916547;-71
2021/07/13 11:21:21;;;;;;;9.40;8.50;;;;;;;;;;757613;184;916214;-72
2021/07/13 11:23:48;;;;;;;10.60;7.93;;;;;;;;;;762205;180;916026;-73
2021/07/13 11:26:14;;;;;;;11.50;7.80;;;;;;;;;;749138;184;919149;-72
2021/07/13 11:28:45;;;;;;;10.40;7.83;;;;;;;;;;747572;184;915586;-72
2021/07/13 11:31:11;;;;;;;8.23;7.43;;;;;;;;;;753256;184;918882;-73
2021/07/13 11:33:37;;;;;;;8.00;7.13;;;;;;;;;;749287;184;948341;-72
2021/07/13 11:36:04;;;;;;;9.15;8.25;;;;;;;;;;752890;183;919143;-70
2021/07/13 11:38:29;;;;;;;29.73;9.53;;;;;;;;;;758276;183;919616;-74
2021/07/13 11:41:01;;;;;;;8.90;8.00;;;;;;;;;;759795;183;614625;-76
2021/07/13 11:43:27;;;;;;;12.10;8.10;;;;;;;;;;750679;183;1122735;-72
2021/07/13 11:45:52;;;;;;;8.97;7.73;;;;;;;;;;756126;184;919254;-75
2021/07/13 11:48:18;;;;;;;7.87;7.07;;;;;;;;;;757404;184;817016;-75
2021/07/13 11:50:44;;;;;;;8.83;7.93;;;;;;;;;;758410;184;731580;-72
2021/07/13 11:53:16;;;;;;;9.60;7.35;;;;;;;;;;755743;184;816184;-73
2021/07/13 11:55:42;;;;;;;9.90;8.23;;;;;;;;;;753996;184;919060;-74
2021/07/13 11:58:08;;;;;;;13.93;7.90;;;;;;;;;;758131;184;919225;-73
2021/07/13 12:00:33;;;;;;;7.67;6.87;;;;;;;;;;749573;184;919310;-69
2021/07/13 12:02:59;;;;;;;7.87;6.67;;;;;;;;;;753448;184;919595;-71
2021/07/13 12:05:26;;;;;;;8.70;7.30;;;;;;;;;;756029;184;919705;-72
2021/07/13 12:07:52;;;;;;;8.43;7.50;;;;;;;;;;750282;184;1021188;-72
2021/07/13 12:10:18;;;;;;;12.70;7.45;;;;;;;;;;751769;184;920164;-73
2021/07/13 12:12:44;;;;;;;8.73;7.83;;;;;;;;;;754843;184;1020901;-72
2021/07/13 12:15:10;;;;;;;8.55;7.70;;;;;;;;;;753434;184;936777;-72
2021/07/13 12:17:36;;;;;;;13.33;7.63;;;;;;;;;;751155;184;919547;-76
2021/07/13 12:20:02;;;;;;;9.27;7.77;;;;;;;;;;753946;183;919047;-74
2021/07/13 12:22:28;;;;;;;11.50;7.67;;;;;;;;;;754735;184;919731;-72
2021/07/13 12:24:53;;;;;;;8.07;7.27;;;;;;;;;;751921;184;918828;-73
2021/07/13 12:27:19;;;;;;;13.50;8.47;;;;;;;;;;753449;184;918736;-74
2021/07/13 12:29:45;;;;;;;12.37;8.17;;;;;;;;;;758072;184;637289;-72
2021/07/13 12:32:15;;;;;;;9.13;8.20;;;;;;;;;;751410;184;920366;-75
2021/07/13 12:34:42;;;;;;;9.13;7.30;;;;;;;;;;749816;184;919221;-73
2021/07/13 12:37:07;;;;;;;10.30;7.37;;;;;;;;;;754405;184;808191;-73
2021/07/13 12:39:32;;;;;;;9.13;8.23;;;;;;;;;;756552;184;627022;-75
2021/07/13 12:42:00;;;;;;;8.97;7.73;;;;;;;;;;753549;184;713120;-71
2021/07/13 12:44:36;;;;;;;13.10;8.40;;;;;;;;;;754947;184;621402;-74
2021/07/13 12:47:08;;;;;;;8.03;6.80;;;;;;;;;;754392;183;918325;-74
2021/07/13 12:49:34;;;;;;;17.07;8.23;;;;;;;;;;758719;183;829150;-71
2021/07/13 12:52:00;;;;;;;11.10;8.00;;;;;;;;;;749748;183;920465;-70
2021/07/13 12:54:28;;;;;;;9.30;7.00;;;;;;;;;;753244;184;920103;-72
2021/07/13 12:56:51;;;;;;;11.23;7.60;;;;;;;;;;754858;184;919455;-70
2021/07/13 12:59:18;;;;;;;9.20;7.47;;;;;;;;;;752319;184;919013;-74
2021/07/13 13:01:43;;;;;;;10.33;8.00;;;;;;;;;;754407;184;918249;-71
2021/07/13 13:04:09;;;;;;;13.47;7.30;;;;;;;;;;757695;184;919090;-71
2021/07/13 13:06:35;;;;;;;8.63;7.40;;;;;;;;;;751301;184;919104;-70
2021/07/13 13:09:01;;;;;;;11.60;9.90;;;;;;;;;;753151;184;919359;-74
2021/07/13 13:11:27;;;;;;;11.90;8.00;;;;;;;;;;750428;184;919399;-72
2021/07/13 13:14:01;;;;;;;10.93;9.70;;;;;;;;;;755248;184;918218;-72
2021/07/13 13:16:25;;;;;;;12.07;8.27;;;;;;;;;;754529;183;983046;-78
2021/07/13 13:18:51;;;;;;;11.53;7.40;;;;;;;;;;753967;184;816715;-74
2021/07/13 13:21:17;;;;;;;10.10;8.33;;;;;;;;;;757303;184;638798;-70
2021/07/13 13:23:43;;;;;;;11.00;8.67;;;;;;;;;;752831;184;919731;-71
2021/07/13 13:26:08;;;;;;;11.57;9.10;;;;;;;;;;754739;184;624595;-73
2021/07/13 13:28:34;;;;;;;10.10;8.57;;;;;;;;;;750512;184;919007;-70
2021/07/13 13:31:00;;;;;;;10.90;8.70;;;;;;;;;;756832;184;1021313;-72
2021/07/13 13:33:26;;;;;;;16.37;10.20;;;;;;;;;;754111;184;848512;-71
2021/07/13 13:36:28;;;;;;;16.10;9.73;;;;;;;;;;752495;184;918443;-77
2021/07/13 13:38:39;;;;;;;13.70;9.03;;;;;;;;;;747528;184;918292;-71
2021/07/13 13:41:04;;;;;;;10.57;9.47;;;;;;;;;;755017;184;912959;-73
2021/07/13 13:43:29;;;;;;;12.87;9.70;;;;;;;;;;749296;184;919684;-72
2021/07/13 13:45:54;;;;;;;12.00;9.50;;;;;;;;;;750328;184;919585;-69
2021/07/13 13:48:20;;;;;;;12.30;9.20;;;;;;;;;;756108;184;921061;-70
2021/07/13 13:50:46;;;;;;;12.47;9.27;;;;;;;;;;752480;184;816361;-72
2021/07/13 13:53:12;;;;;;;14.33;10.47;;;;;;;;;;749133;184;1022340;-71
2021/07/13 13:55:38;;;;;;;13.30;10.50;;;;;;;;;;751745;184;923058;-72
2021/07/13 13:58:04;;;;;;;14.20;10.40;;;;;;;;;;757851;182;918730;-71
2021/07/13 14:00:30;;;;;;;13.33;10.17;;;;;;;;;;755940;183;633325;-72
2021/07/13 14:02:56;;;;;;;14.97;9.73;;;;;;;;;;754654;184;918867;-72
2021/07/13 14:05:21;;;;;;;11.60;9.97;;;;;;;;;;757488;184;919813;-77